createdAt,value
2018-01-16T00:01:57.381Z,1.17
2018-01-16T00:04:24.852Z,1.03
2018-01-16T00:06:52.323Z,1.17
2018-01-16T00:09:19.882Z,1.43
2018-01-16T00:11:47.383Z,1.40
2018-01-16T00:14:14.846Z,1.17
2018-01-16T00:16:42.328Z,1.10
2018-01-16T00:19:09.918Z,1.10
2018-01-16T00:21:38.159Z,1.30
2018-01-16T00:24:05.631Z,1.40
2018-01-16T00:26:33.108Z,1.70
2018-01-16T00:29:01.446Z,1.27
2018-01-16T00:31:28.926Z,1.53
2018-01-16T00:33:56.416Z,1.50
2018-01-16T00:36:23.887Z,1.47
2018-01-16T00:38:51.367Z,1.70
2018-01-16T00:41:18.841Z,1.40
2018-01-16T00:43:47.107Z,1.63
2018-01-16T00:46:14.573Z,1.70
2018-01-16T00:48:42.056Z,1.50
2018-01-16T00:51:10.442Z,2.30
2018-01-16T00:53:37.954Z,1.40
2018-01-16T00:56:05.446Z,1.33
2018-01-16T00:58:32.938Z,1.47
2018-01-16T01:01:00.422Z,1.40
2018-01-16T01:03:27.916Z,1.73
2018-01-16T01:05:55.395Z,1.40
2018-01-16T01:08:23.004Z,1.33
2018-01-16T01:10:50.506Z,1.60
2018-01-16T01:13:17.994Z,1.23
2018-01-16T01:15:45.496Z,1.37
2018-01-16T01:18:13.730Z,1.53
2018-01-16T01:20:41.315Z,1.23
2018-01-16T01:23:09.546Z,1.50
2018-01-16T01:25:37.029Z,1.77
2018-01-16T01:28:04.487Z,1.83
2018-01-16T01:30:31.969Z,1.73
2018-01-16T01:33:00.205Z,1.60
2018-01-16T01:35:27.674Z,2.03
2018-01-16T01:37:55.149Z,2.57
2018-01-16T01:40:23.382Z,2.73
2018-01-16T01:42:50.857Z,3.57
2018-01-16T01:45:18.323Z,3.20
2018-01-16T01:47:47.895Z,3.40
2018-01-16T01:50:15.400Z,3.57
2018-01-16T01:52:43.683Z,3.87
2018-01-16T01:55:11.975Z,4.17
2018-01-16T01:57:39.551Z,2.83
2018-01-16T02:00:07.025Z,3.00
2018-01-16T02:02:34.528Z,2.80
2018-01-16T02:05:01.998Z,3.57
2018-01-16T02:07:29.476Z,2.90
2018-01-16T02:09:56.950Z,3.50
2018-01-16T02:12:24.441Z,3.30
2018-01-16T02:14:52.757Z,3.23
2018-01-16T02:17:20.406Z,3.07
2018-01-16T02:19:47.929Z,2.90
2018-01-16T02:22:16.175Z,3.20
2018-01-16T02:24:43.855Z,3.03
2018-01-16T02:27:11.331Z,3.33
2018-01-16T02:29:38.803Z,3.07
2018-01-16T02:32:06.310Z,2.90
2018-01-16T02:34:34.671Z,3.40
2018-01-16T02:37:02.131Z,2.80
2018-01-16T02:39:29.597Z,3.23
2018-01-16T02:41:57.110Z,3.00
2018-01-16T02:44:24.588Z,3.73
2018-01-16T02:46:52.062Z,3.17
2018-01-16T02:49:19.538Z,2.60
2018-01-16T02:51:47.790Z,2.40
2018-01-16T02:54:15.321Z,3.63
2018-01-16T02:56:42.778Z,2.50
2018-01-16T02:59:10.279Z,4.20
2018-01-16T03:01:37.799Z,3.10
2018-01-16T03:04:05.308Z,4.00
2018-01-16T03:06:33.549Z,3.97
2018-01-16T03:09:01.059Z,3.20
2018-01-16T03:11:28.575Z,4.03
2018-01-16T03:13:56.045Z,4.00
2018-01-16T03:16:24.285Z,3.07
2018-01-16T03:18:51.836Z,3.63
2018-01-16T03:21:19.291Z,3.33
2018-01-16T03:23:46.766Z,3.40
2018-01-16T03:26:14.234Z,3.00
2018-01-16T03:28:42.455Z,2.63
2018-01-16T03:31:09.947Z,3.90
2018-01-16T03:33:37.406Z,2.93
2018-01-16T03:36:04.882Z,3.27
2018-01-16T03:38:33.111Z,3.00
2018-01-16T03:41:00.590Z,3.17
2018-01-16T03:43:28.066Z,3.10
2018-01-16T03:45:56.335Z,3.67
2018-01-16T03:48:24.556Z,2.90
2018-01-16T03:50:52.019Z,2.67
2018-01-16T03:53:19.509Z,3.33
2018-01-16T03:55:47.057Z,3.00
2018-01-16T03:58:14.563Z,4.60
2018-01-16T04:00:42.037Z,2.83
2018-01-16T04:03:09.542Z,2.77
2018-01-16T04:05:37.003Z,3.00
2018-01-16T04:08:05.538Z,2.90
2018-01-16T04:10:32.991Z,3.10
2018-01-16T04:13:00.520Z,2.50
2018-01-16T04:15:27.980Z,2.20
2018-01-16T04:17:55.450Z,2.73
2018-01-16T04:20:22.915Z,3.20
2018-01-16T04:22:50.411Z,3.33
2018-01-16T04:25:17.866Z,2.30
2018-01-16T04:27:45.345Z,2.90
2018-01-16T04:30:12.820Z,2.73
2018-01-16T04:32:40.291Z,2.23
2018-01-16T04:35:07.752Z,2.57
2018-01-16T04:37:35.241Z,2.83
2018-01-16T04:40:02.749Z,2.93
2018-01-16T04:42:30.944Z,2.87
2018-01-16T04:44:58.423Z,2.53
2018-01-16T04:47:25.875Z,2.50
2018-01-16T04:49:53.357Z,2.60
2018-01-16T04:52:21.583Z,2.63
2018-01-16T04:54:49.072Z,2.40
2018-01-16T04:57:16.538Z,2.27
2018-01-16T04:59:44.754Z,2.20
2018-01-16T05:02:12.245Z,2.03
2018-01-16T05:04:39.874Z,2.50
2018-01-16T05:07:07.496Z,2.07
2018-01-16T05:09:35.739Z,2.80
2018-01-16T05:12:03.234Z,2.03
2018-01-16T05:14:30.741Z,2.43
2018-01-16T05:16:58.210Z,2.77
2018-01-16T05:19:25.732Z,2.40
2018-01-16T05:21:53.254Z,2.43
2018-01-16T05:24:20.688Z,2.50
2018-01-16T05:26:48.187Z,2.30
2018-01-16T05:29:15.634Z,2.33
2018-01-16T05:31:43.143Z,2.50
2018-01-16T05:34:10.642Z,2.47
2018-01-16T05:36:38.151Z,2.20
2018-01-16T05:39:05.621Z,3.37
2018-01-16T05:41:33.088Z,2.80
2018-01-16T05:44:01.335Z,2.43
2018-01-16T05:46:28.859Z,2.47
2018-01-16T05:48:56.335Z,2.63
2018-01-16T05:51:23.865Z,3.20
2018-01-16T05:53:51.348Z,3.17
2018-01-16T05:56:18.797Z,2.43
2018-01-16T05:58:46.294Z,2.57
2018-01-16T06:01:14.527Z,3.23
2018-01-16T06:03:41.997Z,2.80
2018-01-16T06:06:09.471Z,2.57
2018-01-16T06:08:36.988Z,2.80
2018-01-16T06:11:04.469Z,2.13
2018-01-16T06:13:31.926Z,2.60
2018-01-16T06:15:59.453Z,2.70
2018-01-16T06:18:26.940Z,2.70
2018-01-16T06:20:54.406Z,3.43
2018-01-16T06:23:21.863Z,2.63
2018-01-16T06:25:49.329Z,3.27
2018-01-16T06:28:16.854Z,2.83
2018-01-16T06:30:44.331Z,3.40
2018-01-16T06:33:11.834Z,2.97
2018-01-16T06:35:39.283Z,2.70
2018-01-16T06:38:07.324Z,2.27
2018-01-16T06:40:34.774Z,2.10
2018-01-16T06:43:03.517Z,3.00
2018-01-16T06:45:30.980Z,3.00
2018-01-16T06:47:58.481Z,2.90
2018-01-16T06:50:25.937Z,2.93
2018-01-16T06:52:54.198Z,2.43
2018-01-16T06:55:21.648Z,2.90
2018-01-16T06:57:49.155Z,2.47
2018-01-16T07:00:16.627Z,2.87
2018-01-16T07:02:44.168Z,2.60
2018-01-16T07:05:11.662Z,2.30
2018-01-16T07:07:39.144Z,3.43
2018-01-16T07:10:06.637Z,2.73
2018-01-16T07:12:34.110Z,3.03
2018-01-16T07:15:01.604Z,3.30
2018-01-16T07:17:29.067Z,3.13
2018-01-16T07:19:56.548Z,3.67
2018-01-16T07:22:24.027Z,2.83
2018-01-16T07:24:51.499Z,4.37
2018-01-16T07:27:18.962Z,4.83
2018-01-16T07:29:46.430Z,3.60
2018-01-16T07:32:13.909Z,2.73
2018-01-16T07:34:42.152Z,3.17
2018-01-16T07:37:09.613Z,4.17
2018-01-16T07:39:37.080Z,2.93
2018-01-16T07:42:04.614Z,3.33
2018-01-16T07:44:32.210Z,3.77
2018-01-16T07:47:00.497Z,3.10
2018-01-16T07:49:27.927Z,3.10
2018-01-16T07:51:55.437Z,2.80
2018-01-16T07:54:22.907Z,3.17
2018-01-16T07:56:50.432Z,3.73
2018-01-16T07:59:17.901Z,2.67
2018-01-16T08:01:45.367Z,3.93
2018-01-16T08:04:12.841Z,4.03
2018-01-16T08:06:40.325Z,3.20
2018-01-16T08:09:08.542Z,2.93
2018-01-16T08:11:36.030Z,3.17
2018-01-16T08:14:03.651Z,3.80
2018-01-16T08:16:31.117Z,3.20
2018-01-16T08:18:58.632Z,2.53
2018-01-16T08:21:26.881Z,2.70
2018-01-16T08:23:54.518Z,2.23
2018-01-16T08:26:21.990Z,2.10
2018-01-16T08:28:49.493Z,2.10
2018-01-16T08:31:17.735Z,2.90
2018-01-16T08:33:45.240Z,2.60
2018-01-16T08:36:12.713Z,1.87
2018-01-16T08:38:40.179Z,2.00
2018-01-16T08:41:07.689Z,3.33
2018-01-16T08:43:35.961Z,1.90
2018-01-16T08:46:03.415Z,2.20
2018-01-16T08:48:31.715Z,2.20
2018-01-16T08:50:59.464Z,2.50
2018-01-16T08:53:26.930Z,2.77
2018-01-16T08:55:54.452Z,2.40
2018-01-16T08:58:21.906Z,1.90
2018-01-16T09:00:50.159Z,1.93
2018-01-16T09:03:17.622Z,2.53
2018-01-16T09:05:45.099Z,1.87
2018-01-16T09:08:13.329Z,2.10
2018-01-16T09:10:40.815Z,2.13
2018-01-16T09:13:08.272Z,1.90
2018-01-16T09:15:35.748Z,2.30
2018-01-16T09:18:03.994Z,2.33
2018-01-16T09:20:31.469Z,1.80
2018-01-16T09:22:59.706Z,1.90
2018-01-16T09:25:27.185Z,2.00
2018-01-16T09:27:54.699Z,2.00
2018-01-16T09:30:22.230Z,1.80
2018-01-16T09:32:49.695Z,1.73
2018-01-16T09:35:17.195Z,1.83
2018-01-16T09:37:44.659Z,1.90
2018-01-16T09:40:12.130Z,2.20
2018-01-16T09:42:40.403Z,1.70
2018-01-16T09:45:08.117Z,2.23
2018-01-16T09:47:35.578Z,2.07
2018-01-16T09:50:03.058Z,2.40
2018-01-16T09:52:30.524Z,1.97
2018-01-16T09:54:57.990Z,1.60
2018-01-16T09:57:26.237Z,1.20
2018-01-16T09:59:53.748Z,1.10
2018-01-16T10:02:21.255Z,1.15
2018-01-16T10:04:48.700Z,0.63
2018-01-16T10:07:16.219Z,0.80
2018-01-16T10:09:43.678Z,1.80
2018-01-16T10:12:11.299Z,1.20
2018-01-16T10:14:39.533Z,1.10
2018-01-16T10:17:07.013Z,1.77
2018-01-16T10:19:34.462Z,1.40
2018-01-16T10:22:02.919Z,1.47
2018-01-16T10:24:30.408Z,1.53
2018-01-16T10:26:57.911Z,1.13
2018-01-16T10:29:25.392Z,1.00
2018-01-16T10:31:53.103Z,1.07
2018-01-16T10:34:20.578Z,1.00
2018-01-16T10:36:48.049Z,1.03
2018-01-16T10:39:15.536Z,1.57
2018-01-16T10:41:43.066Z,1.50
2018-01-16T10:44:10.540Z,1.67
2018-01-16T10:46:38.033Z,1.20
2018-01-16T10:49:05.736Z,1.83
2018-01-16T10:51:33.198Z,1.73
2018-01-16T10:54:00.686Z,1.33
2018-01-16T10:56:28.192Z,1.50
2018-01-16T10:58:55.690Z,1.83
2018-01-16T11:01:23.245Z,1.77
2018-01-16T11:03:50.895Z,2.00
2018-01-16T11:06:18.531Z,1.73
2018-01-16T11:08:46.088Z,1.80
2018-01-16T11:11:13.588Z,1.73
2018-01-16T11:13:41.050Z,2.33
2018-01-16T11:16:08.554Z,2.10
2018-01-16T11:18:36.028Z,2.50
2018-01-16T11:21:03.479Z,1.87
2018-01-16T11:23:31.279Z,2.27
2018-01-16T11:25:58.746Z,2.40
2018-01-16T11:28:26.228Z,2.07
2018-01-16T11:30:53.681Z,2.30
2018-01-16T11:33:21.906Z,2.17
2018-01-16T11:35:49.384Z,1.70
2018-01-16T11:38:18.526Z,2.13
2018-01-16T11:40:46.017Z,1.27
2018-01-16T11:43:13.594Z,1.90
2018-01-16T11:45:41.876Z,1.80
2018-01-16T11:48:09.326Z,1.50
2018-01-16T11:50:36.831Z,1.50
2018-01-16T11:53:04.343Z,1.90
2018-01-16T11:55:31.834Z,3.00
2018-01-16T11:57:59.287Z,2.27
2018-01-16T12:00:26.782Z,1.97
2018-01-16T12:02:54.235Z,1.50
2018-01-16T12:05:21.748Z,1.50
2018-01-16T12:07:49.978Z,2.20
2018-01-16T12:10:17.521Z,1.90
2018-01-16T12:12:45.010Z,1.47
2018-01-16T12:15:12.612Z,2.07
2018-01-16T12:17:40.085Z,2.53
2018-01-16T12:20:07.539Z,1.90
2018-01-16T12:22:35.021Z,3.37
2018-01-16T12:25:02.488Z,1.90
2018-01-16T12:27:29.958Z,3.07
2018-01-16T12:29:58.206Z,2.30
2018-01-16T12:32:25.729Z,3.07
2018-01-16T12:34:53.190Z,2.33
2018-01-16T12:37:20.648Z,3.00
2018-01-16T12:39:48.119Z,3.53
2018-01-16T12:42:15.574Z,2.57
2018-01-16T12:44:43.059Z,3.30
2018-01-16T12:47:10.511Z,2.57
2018-01-16T12:49:38.010Z,2.47
2018-01-16T12:52:05.520Z,2.63
2018-01-16T12:54:33.007Z,2.33
2018-01-16T12:57:00.493Z,2.70
2018-01-16T12:59:27.971Z,3.00
2018-01-16T13:01:55.474Z,2.87
2018-01-16T13:04:23.691Z,2.20
2018-01-16T13:06:51.171Z,2.53
2018-01-16T13:09:18.618Z,2.80
2018-01-16T13:11:46.100Z,2.63
2018-01-16T13:14:14.479Z,2.30
2018-01-16T13:16:42.892Z,2.33
2018-01-16T13:19:10.359Z,2.37
2018-01-16T13:21:37.862Z,2.03
2018-01-16T13:24:05.338Z,1.40
2018-01-16T13:26:33.600Z,2.00
2018-01-16T13:29:01.115Z,2.17
2018-01-16T13:31:28.608Z,2.30
2018-01-16T13:33:56.126Z,2.10
2018-01-16T13:36:23.655Z,2.00
2018-01-16T13:38:51.185Z,1.90
2018-01-16T13:41:18.804Z,1.57
2018-01-16T13:43:46.328Z,2.20
2018-01-16T13:46:13.846Z,2.63
2018-01-16T13:48:41.370Z,2.27
2018-01-16T13:51:08.853Z,2.27
2018-01-16T13:53:36.344Z,2.03
2018-01-16T13:56:04.634Z,4.20
2018-01-16T13:58:32.106Z,2.50
2018-01-16T14:00:59.655Z,2.07
2018-01-16T14:03:27.119Z,2.73
2018-01-16T14:05:54.740Z,2.07
2018-01-16T14:08:22.528Z,2.10
2018-01-16T14:10:50.039Z,1.93
2018-01-16T14:13:17.522Z,2.63
2018-01-16T14:15:45.827Z,2.47
2018-01-16T14:18:14.448Z,2.73
2018-01-16T14:20:41.986Z,2.17
2018-01-16T14:23:09.464Z,2.53
2018-01-16T14:25:37.058Z,2.57
2018-01-16T14:28:04.553Z,1.70
2018-01-16T14:30:32.138Z,1.97
2018-01-16T14:33:00.589Z,2.10
2018-01-16T14:35:28.073Z,1.83
2018-01-16T14:37:55.567Z,1.77
2018-01-16T14:40:23.051Z,1.50
2018-01-16T14:42:50.591Z,1.53
2018-01-16T14:45:18.042Z,2.03
2018-01-16T14:47:45.590Z,1.80
2018-01-16T14:50:13.068Z,1.10
2018-01-16T14:52:40.589Z,1.23
2018-01-16T14:55:08.828Z,1.40
2018-01-16T14:57:36.499Z,1.60
2018-01-16T15:00:03.981Z,0.73
2018-01-16T15:02:32.213Z,1.67
2018-01-16T15:04:59.695Z,1.50
2018-01-16T15:07:28.699Z,1.10
2018-01-16T15:09:57.027Z,1.27
2018-01-16T15:12:24.668Z,1.73
2018-01-16T15:14:52.149Z,1.73
2018-01-16T15:17:19.904Z,1.00
2018-01-16T15:19:47.405Z,1.20
2018-01-16T15:22:15.695Z,1.87
2018-01-16T15:24:44.096Z,1.17
2018-01-16T15:27:12.573Z,1.30
2018-01-16T15:29:40.067Z,1.40
2018-01-16T15:32:07.536Z,1.40
2018-01-16T15:34:36.266Z,1.63
2018-01-16T15:37:03.762Z,1.47
2018-01-16T15:39:31.258Z,2.10
2018-01-16T15:41:59.509Z,1.93
2018-01-16T15:44:27.027Z,2.00
2018-01-16T15:46:54.514Z,1.70
2018-01-16T15:49:22.129Z,1.83
2018-01-16T15:51:49.615Z,1.90
2018-01-16T15:54:17.121Z,2.50
2018-01-16T15:56:45.531Z,1.57
2018-01-16T15:59:13.096Z,2.13
2018-01-16T16:01:40.801Z,1.83
2018-01-16T16:04:08.425Z,2.73
2018-01-16T16:06:36.053Z,2.20
2018-01-16T16:09:03.548Z,1.77
2018-01-16T16:11:31.127Z,2.50
2018-01-16T16:13:58.801Z,2.40
2018-01-16T16:16:27.185Z,2.60
2018-01-16T16:18:55.457Z,2.90
2018-01-16T16:21:23.740Z,2.53
2018-01-16T16:23:51.245Z,2.87
2018-01-16T16:26:18.787Z,3.10
2018-01-16T16:28:46.274Z,3.03
2018-01-16T16:31:13.896Z,2.63
2018-01-16T16:33:41.375Z,2.30
2018-01-16T16:36:08.887Z,2.13
2018-01-16T16:38:36.359Z,2.23
2018-01-16T16:41:03.858Z,2.33
2018-01-16T16:43:31.316Z,1.83
2018-01-16T16:45:59.582Z,2.20
2018-01-16T16:48:27.040Z,2.53
2018-01-16T16:50:54.582Z,2.33
2018-01-16T16:53:22.102Z,2.47
2018-01-16T16:55:49.717Z,2.63
2018-01-16T16:58:17.300Z,1.90
2018-01-16T17:00:45.533Z,1.90
2018-01-16T17:03:13.019Z,2.93
2018-01-16T17:05:40.496Z,3.27
2018-01-16T17:08:07.981Z,2.80
2018-01-16T17:10:35.482Z,2.60
2018-01-16T17:13:03.002Z,2.73
2018-01-16T17:15:30.539Z,2.40
2018-01-16T17:17:58.023Z,2.80
2018-01-16T17:20:25.478Z,2.70
2018-01-16T17:22:53.085Z,2.37
2018-01-16T17:25:21.369Z,2.87
2018-01-16T17:27:48.841Z,3.43
2018-01-16T17:30:16.327Z,3.10
2018-01-16T17:32:43.789Z,3.60
2018-01-16T17:35:11.254Z,3.63
2018-01-16T17:37:38.726Z,3.57
2018-01-16T17:40:06.996Z,4.07
2018-01-16T17:42:34.469Z,4.13
2018-01-16T17:45:02.718Z,3.57
2018-01-16T17:47:30.172Z,4.10
2018-01-16T17:49:57.673Z,3.93
2018-01-16T17:52:25.301Z,4.10
2018-01-16T17:54:54.842Z,5.47
2018-01-16T17:57:22.335Z,3.43
2018-01-16T17:59:49.815Z,3.90
2018-01-16T18:02:17.327Z,3.90
2018-01-16T18:04:44.790Z,3.80
2018-01-16T18:07:13.361Z,3.63
2018-01-16T18:09:40.819Z,3.43
2018-01-16T18:12:08.337Z,4.23
2018-01-16T18:14:36.624Z,4.53
2018-01-16T18:17:04.875Z,5.63
2018-01-16T18:19:32.876Z,6.23
2018-01-16T18:22:00.363Z,8.10
2018-01-16T18:24:27.939Z,8.63
2018-01-16T18:26:55.507Z,5.27
2018-01-16T18:29:23.017Z,6.20
2018-01-16T18:31:50.678Z,5.10
2018-01-16T18:34:22.147Z,3.97
2018-01-16T18:36:50.446Z,4.70
2018-01-16T18:39:17.964Z,5.33
2018-01-16T18:41:45.435Z,6.30
2018-01-16T18:44:13.727Z,4.23
2018-01-16T18:46:41.237Z,3.93
2018-01-16T18:49:09.330Z,4.37
2018-01-16T18:51:36.801Z,4.00
2018-01-16T18:54:04.276Z,5.50
2018-01-16T18:56:31.757Z,5.00
2018-01-16T18:59:00.006Z,4.40
2018-01-16T19:01:27.474Z,5.33
2018-01-16T19:03:55.750Z,5.30
2018-01-16T19:06:24.005Z,5.93
2018-01-16T19:08:51.471Z,4.87
2018-01-16T19:11:19.707Z,3.47
2018-01-16T19:13:47.171Z,3.17
2018-01-16T19:16:14.752Z,4.93
2018-01-16T19:18:43.739Z,4.10
2018-01-16T19:21:11.329Z,3.87
2018-01-16T19:23:39.607Z,3.40
2018-01-16T19:26:07.084Z,3.67
2018-01-16T19:28:34.558Z,5.00
2018-01-16T19:31:02.026Z,4.67
2018-01-16T19:33:29.571Z,4.00
2018-01-16T19:35:57.037Z,3.93
2018-01-16T19:38:24.610Z,5.33
2018-01-16T19:40:52.097Z,3.80
2018-01-16T19:43:19.579Z,4.73
2018-01-16T19:45:47.075Z,4.37
2018-01-16T19:48:14.585Z,4.27
2018-01-16T19:50:42.042Z,4.20
2018-01-16T19:53:09.540Z,3.90
2018-01-16T19:55:37.013Z,4.57
2018-01-16T19:58:04.574Z,4.40
2018-01-16T20:00:32.827Z,4.53
2018-01-16T20:03:00.305Z,4.93
2018-01-16T20:05:28.577Z,4.90
2018-01-16T20:07:56.904Z,5.10
2018-01-16T20:10:24.547Z,5.97
2018-01-16T20:12:52.060Z,5.43
2018-01-16T20:15:19.559Z,5.67
2018-01-16T20:17:47.031Z,6.40
2018-01-16T20:20:14.510Z,6.50
2018-01-16T20:22:42.801Z,6.47
2018-01-16T20:25:10.263Z,5.87
2018-01-16T20:27:37.742Z,5.13
2018-01-16T20:30:05.274Z,5.80
2018-01-16T20:32:32.982Z,6.67
2018-01-16T20:35:00.449Z,7.13
2018-01-16T20:37:29.391Z,7.07
2018-01-16T20:39:57.031Z,8.43
2018-01-16T20:42:24.639Z,8.30
2018-01-16T20:44:52.135Z,8.73
2018-01-16T20:47:19.719Z,9.53
2018-01-16T20:49:48.006Z,11.50
2018-01-16T20:52:16.273Z,9.33
2018-01-16T20:54:44.527Z,12.17
2018-01-16T20:57:12.015Z,10.23
2018-01-16T20:59:39.504Z,11.83
2018-01-16T21:02:06.972Z,9.50
2018-01-16T21:04:34.462Z,8.77
2018-01-16T21:07:02.006Z,10.40
2018-01-16T21:09:29.559Z,9.63
2018-01-16T21:11:57.021Z,7.47
2018-01-16T21:14:24.834Z,6.03
2018-01-16T21:16:52.287Z,6.40
2018-01-16T21:19:19.756Z,5.47
2018-01-16T21:21:47.247Z,5.60
2018-01-16T21:24:14.711Z,5.47
2018-01-16T21:26:42.195Z,5.53
2018-01-16T21:29:10.429Z,5.60
2018-01-16T21:31:37.892Z,5.70
2018-01-16T21:34:09.045Z,6.30
2018-01-16T21:36:38.963Z,4.57
2018-01-16T21:39:07.215Z,5.50
2018-01-16T21:41:35.463Z,6.90
2018-01-16T21:44:02.951Z,5.13
2018-01-16T21:46:30.465Z,5.77
2018-01-16T21:48:57.924Z,5.33
2018-01-16T21:51:25.426Z,5.30
2018-01-16T21:53:52.985Z,6.40
2018-01-16T21:56:20.443Z,6.10
2018-01-16T21:58:48.745Z,7.33
2018-01-16T22:01:16.225Z,6.07
2018-01-16T22:03:43.707Z,5.83
2018-01-16T22:06:11.166Z,5.40
2018-01-16T22:08:38.703Z,5.60
2018-01-16T22:11:06.169Z,4.60
2018-01-16T22:13:33.651Z,5.00
2018-01-16T22:16:01.134Z,4.47
2018-01-16T22:18:28.646Z,4.73
2018-01-16T22:20:56.136Z,5.40
2018-01-16T22:23:24.400Z,5.20
2018-01-16T22:25:52.653Z,5.63
2018-01-16T22:28:20.126Z,4.70
2018-01-16T22:30:47.590Z,5.13
2018-01-16T22:33:16.838Z,6.33
2018-01-16T22:35:44.344Z,5.27
2018-01-16T22:38:12.596Z,6.07
2018-01-16T22:40:40.079Z,5.50
2018-01-16T22:43:08.310Z,5.70
2018-01-16T22:45:35.796Z,5.97
2018-01-16T22:48:04.047Z,6.27
2018-01-16T22:50:31.535Z,5.77
2018-01-16T22:52:59.844Z,7.10
2018-01-16T22:55:27.401Z,6.73
2018-01-16T22:57:54.910Z,6.63
2018-01-16T23:00:22.373Z,4.87
2018-01-16T23:02:50.621Z,5.90
2018-01-16T23:05:18.143Z,5.80
2018-01-16T23:07:45.638Z,4.87
2018-01-16T23:10:13.143Z,4.67
2018-01-16T23:12:40.619Z,4.30
2018-01-16T23:15:08.115Z,3.00
2018-01-16T23:17:35.568Z,2.57
2018-01-16T23:20:03.365Z,2.50
2018-01-16T23:22:31.592Z,2.50
2018-01-16T23:24:59.090Z,2.40
2018-01-16T23:27:27.304Z,2.63
2018-01-16T23:29:54.780Z,2.93
2018-01-16T23:32:22.268Z,3.13
2018-01-16T23:34:50.492Z,3.00
2018-01-16T23:37:17.962Z,2.77
2018-01-16T23:39:45.413Z,3.00
2018-01-16T23:42:12.884Z,3.10
2018-01-16T23:44:40.354Z,3.67
2018-01-16T23:47:07.818Z,3.23
2018-01-16T23:49:36.053Z,2.63
2018-01-16T23:52:03.513Z,3.07
2018-01-16T23:54:30.976Z,2.90
2018-01-16T23:56:58.446Z,2.47
2018-01-16T23:59:33.220Z,3.33
